createdAt,value
2023-01-21T00:00:02.850Z,89.62
2023-01-21T00:02:30.242Z,88.99
2023-01-21T00:04:59.041Z,89.30
2023-01-21T00:07:26.879Z,89.22
2023-01-21T00:09:54.387Z,88.90
2023-01-21T00:12:22.013Z,88.95
2023-01-21T00:14:49.473Z,89.01
2023-01-21T00:17:16.957Z,89.50
2023-01-21T00:19:44.491Z,89.45
2023-01-21T00:22:13.306Z,88.98
2023-01-21T00:24:40.699Z,89.62
2023-01-21T00:27:08.037Z,89.55
2023-01-21T00:29:35.491Z,89.05
2023-01-21T00:32:02.950Z,89.68
2023-01-21T00:34:30.404Z,89.57
2023-01-21T00:36:57.920Z,89.30
2023-01-21T00:39:26.856Z,89.54
2023-01-21T00:41:54.470Z,89.72
2023-01-21T00:44:21.962Z,89.27
2023-01-21T00:46:49.437Z,89.57
2023-01-21T00:49:17.021Z,89.74
2023-01-21T00:51:44.590Z,89.83
2023-01-21T00:54:12.057Z,89.91
2023-01-21T00:56:40.848Z,90.43
2023-01-21T00:59:08.639Z,90.99
2023-01-21T01:01:38.363Z,90.20
2023-01-21T01:04:07.005Z,90.22
2023-01-21T01:06:35.321Z,89.89
2023-01-21T01:09:02.943Z,89.93
2023-01-21T01:11:31.497Z,90.13
2023-01-21T01:14:00.706Z,90.04
2023-01-21T01:16:28.230Z,90.23
2023-01-21T01:18:56.616Z,90.30
2023-01-21T01:21:24.900Z,89.95
2023-01-21T01:23:54.696Z,90.03
2023-01-21T01:26:23.047Z,90.09
2023-01-21T01:28:50.751Z,89.59
2023-01-21T01:31:20.462Z,89.60
2023-01-21T01:33:48.509Z,89.89
2023-01-21T01:36:19.096Z,90.00
2023-01-21T01:38:46.865Z,89.90
2023-01-21T01:41:17.285Z,89.94
2023-01-21T01:43:51.335Z,90.02
2023-01-21T01:46:20.585Z,90.16
2023-01-21T01:48:50.456Z,89.64
2023-01-21T01:51:19.919Z,90.15
2023-01-21T01:53:48.271Z,90.26
2023-01-21T01:56:16.344Z,90.48
2023-01-21T01:58:44.496Z,90.91
2023-01-21T02:01:12.076Z,90.97
2023-01-21T02:03:50.758Z,89.98
2023-01-21T02:06:19.318Z,89.61
2023-01-21T02:08:48.069Z,90.33
2023-01-21T02:11:17.611Z,90.00
2023-01-21T02:13:49.245Z,90.24
2023-01-21T02:16:31.587Z,90.39
2023-01-21T02:19:12.639Z,90.02
2023-01-21T02:21:55.636Z,90.42
2023-01-21T02:24:48.702Z,90.04
2023-01-21T02:27:31.071Z,90.68
2023-01-21T02:30:24.723Z,90.32
2023-01-21T02:33:18.487Z,90.88
2023-01-21T02:35:50.543Z,91.11
2023-01-21T02:38:25.279Z,91.73
2023-01-21T02:40:59.820Z,92.20
2023-01-21T02:43:32.909Z,91.32
2023-01-21T02:46:04.507Z,91.09
2023-01-21T02:48:36.074Z,92.75
2023-01-21T02:51:03.519Z,92.75
2023-01-21T02:53:32.553Z,92.74
2023-01-21T02:56:04.073Z,91.91
2023-01-21T02:58:34.407Z,92.16
2023-01-21T03:01:13.537Z,91.40
2023-01-21T03:03:58.452Z,91.08
2023-01-21T03:06:51.757Z,91.64
2023-01-21T03:09:23.007Z,90.99
2023-01-21T03:12:03.185Z,90.97
2023-01-21T03:14:50.577Z,91.04
2023-01-21T03:17:23.365Z,91.01
2023-01-21T03:19:57.543Z,90.92
2023-01-21T03:22:28.131Z,91.00
2023-01-21T03:24:57.106Z,91.27
2023-01-21T03:27:26.983Z,90.94
2023-01-21T03:29:58.011Z,90.98
2023-01-21T03:32:26.863Z,91.13
2023-01-21T03:34:56.510Z,91.14
2023-01-21T03:37:30.448Z,91.10
2023-01-21T03:40:04.410Z,91.10
2023-01-21T03:42:32.173Z,90.91
2023-01-21T03:45:00.000Z,90.50
2023-01-21T03:47:31.383Z,91.29
2023-01-21T03:50:02.218Z,90.92
2023-01-21T03:52:30.041Z,91.18
2023-01-21T03:54:57.539Z,90.68
2023-01-21T03:57:25.060Z,91.05
2023-01-21T03:59:52.522Z,91.54
2023-01-21T04:02:21.035Z,91.05
2023-01-21T04:04:48.736Z,90.71
2023-01-21T04:07:17.796Z,90.93
2023-01-21T04:09:45.332Z,91.29
2023-01-21T04:12:13.284Z,91.43
2023-01-21T04:14:40.864Z,90.95
2023-01-21T04:17:09.071Z,91.14
2023-01-21T04:19:36.925Z,92.16
2023-01-21T04:22:06.723Z,91.89
2023-01-21T04:27:16.950Z,92.87
2023-01-21T04:29:44.455Z,92.53
2023-01-21T04:32:12.072Z,92.54
2023-01-21T04:34:39.625Z,92.62
2023-01-21T04:37:07.627Z,92.59
2023-01-21T04:39:35.115Z,93.03
2023-01-21T04:42:03.038Z,92.83
2023-01-21T04:44:31.968Z,93.35
2023-01-21T04:46:59.464Z,93.26
2023-01-21T04:49:27.084Z,93.58
2023-01-21T04:51:54.716Z,92.47
2023-01-21T04:54:22.164Z,93.31
2023-01-21T04:56:49.570Z,93.91
2023-01-21T04:59:17.578Z,94.31
2023-01-21T05:01:46.517Z,95.00
2023-01-21T05:04:14.036Z,94.68
2023-01-21T05:06:41.470Z,94.65
2023-01-21T05:09:09.262Z,94.78
2023-01-21T05:11:37.172Z,94.14
2023-01-21T05:14:04.755Z,94.01
2023-01-21T05:16:32.177Z,94.13
2023-01-21T05:19:01.043Z,94.43
2023-01-21T05:21:28.508Z,95.27
2023-01-21T05:23:56.016Z,93.99
2023-01-21T05:26:23.427Z,94.33
2023-01-21T05:28:50.975Z,94.80
2023-01-21T05:31:18.871Z,95.00
2023-01-21T05:33:47.233Z,95.09
2023-01-21T05:36:16.085Z,95.34
2023-01-21T05:38:43.536Z,96.36
2023-01-21T05:41:11.014Z,96.78
2023-01-21T05:43:38.754Z,96.41
2023-01-21T05:46:06.718Z,96.92
2023-01-21T05:48:34.497Z,98.38
2023-01-21T05:51:03.094Z,97.37
2023-01-21T05:53:32.072Z,98.41
2023-01-21T05:55:59.601Z,97.29
2023-01-21T05:58:27.396Z,97.37
2023-01-21T06:00:55.468Z,96.82
2023-01-21T06:03:23.094Z,97.68
2023-01-21T06:05:51.354Z,97.65
2023-01-21T06:08:19.252Z,97.51
2023-01-21T06:10:48.363Z,97.96
2023-01-21T06:13:16.584Z,97.48
2023-01-21T06:15:44.091Z,96.55
2023-01-21T06:18:11.686Z,95.74
2023-01-21T06:20:39.249Z,95.68
2023-01-21T06:23:06.786Z,95.49
2023-01-21T06:25:34.629Z,94.91
2023-01-21T06:28:03.412Z,95.13
2023-01-21T06:30:30.809Z,96.29
2023-01-21T06:32:58.204Z,95.99
2023-01-21T06:35:25.723Z,95.96
2023-01-21T06:37:53.286Z,96.03
2023-01-21T06:40:20.772Z,97.57
2023-01-21T06:42:48.775Z,97.34
2023-01-21T06:45:18.045Z,96.67
2023-01-21T06:47:46.048Z,96.88
2023-01-21T06:50:15.334Z,96.32
2023-01-21T06:52:43.664Z,96.53
2023-01-21T06:55:11.372Z,96.98
2023-01-21T06:57:39.070Z,95.68
2023-01-21T07:00:08.951Z,94.87
2023-01-21T07:02:37.936Z,95.03
2023-01-21T07:05:06.225Z,94.41
2023-01-21T07:07:33.658Z,94.25
2023-01-21T07:10:01.113Z,94.22
2023-01-21T07:12:28.587Z,94.00
2023-01-21T07:14:56.000Z,93.91
2023-01-21T07:17:24.011Z,94.80
2023-01-21T07:19:53.016Z,94.77
2023-01-21T07:22:21.368Z,94.49
2023-01-21T07:24:48.951Z,95.19
2023-01-21T07:27:16.548Z,94.54
2023-01-21T07:29:44.228Z,94.68
2023-01-21T07:32:12.196Z,95.52
2023-01-21T07:34:39.763Z,95.00
2023-01-21T07:37:08.578Z,95.11
2023-01-21T07:39:36.085Z,95.77
2023-01-21T07:42:04.736Z,95.71
2023-01-21T07:44:32.207Z,95.42
2023-01-21T07:53:00.650Z,96.05
2023-01-21T07:55:29.063Z,96.39
2023-01-21T08:00:37.983Z,96.12
2023-01-21T08:11:14.082Z,97.92
2023-01-21T08:13:41.551Z,96.86
2023-01-21T08:16:11.701Z,97.02
2023-01-21T08:18:39.129Z,96.97
2023-01-21T08:21:06.796Z,98.14
2023-01-21T08:23:34.609Z,98.22
2023-01-21T08:26:03.196Z,98.23
2023-01-21T08:28:32.321Z,97.54
2023-01-21T08:31:04.440Z,97.80
2023-01-21T08:33:31.831Z,97.46
2023-01-21T08:36:01.224Z,96.96
2023-01-21T08:38:28.830Z,97.42
2023-01-21T08:40:57.434Z,96.92
2023-01-21T08:43:25.102Z,97.09
2023-01-21T08:45:57.628Z,97.57
2023-01-21T08:48:25.220Z,97.90
2023-01-21T08:50:52.691Z,98.24
2023-01-21T08:53:21.522Z,98.21
2023-01-21T08:55:49.053Z,98.59
2023-01-21T08:58:16.649Z,98.33
2023-01-21T09:00:44.924Z,97.74
2023-01-21T09:03:17.077Z,98.65
2023-01-21T09:05:44.582Z,98.32
2023-01-21T09:08:12.200Z,98.27
2023-01-21T09:10:57.388Z,98.45
2023-01-21T09:13:24.800Z,98.58
2023-01-21T09:15:52.301Z,98.83
2023-01-21T09:18:21.120Z,98.76
2023-01-21T09:20:48.801Z,98.44
2023-01-21T09:23:25.415Z,97.97
2023-01-21T09:25:53.983Z,98.68
2023-01-21T09:28:22.528Z,98.38
2023-01-21T09:30:50.197Z,99.84
2023-01-21T09:33:17.954Z,100.00
2023-01-21T09:35:54.376Z,99.50
2023-01-21T09:38:22.043Z,99.41
2023-01-21T09:40:50.021Z,99.21
2023-01-21T09:43:22.186Z,99.37
2023-01-21T09:45:51.468Z,99.70
2023-01-21T09:48:28.106Z,99.04
2023-01-21T09:50:58.862Z,99.23
2023-01-21T09:53:29.979Z,99.44
2023-01-21T09:56:00.261Z,100.00
2023-01-21T09:58:45.688Z,99.97
2023-01-21T10:04:06.217Z,100.00
2023-01-21T10:06:41.277Z,99.83
2023-01-21T10:09:22.821Z,99.80
2023-01-21T10:12:01.464Z,100.00
2023-01-21T10:14:48.901Z,100.00
2023-01-21T10:17:20.835Z,99.87
2023-01-21T10:19:52.624Z,100.00
2023-01-21T10:22:26.586Z,100.00
2023-01-21T10:24:58.821Z,100.00
2023-01-21T10:27:27.615Z,100.00
2023-01-21T10:29:59.509Z,100.00
2023-01-21T10:32:28.829Z,100.00
2023-01-21T10:34:57.711Z,100.00
2023-01-21T10:37:35.821Z,100.00
2023-01-21T10:40:11.833Z,100.00
2023-01-21T10:42:51.396Z,100.00
2023-01-21T10:45:28.153Z,100.00
2023-01-21T10:48:02.206Z,100.00
2023-01-21T10:50:36.039Z,100.00
2023-01-21T10:53:13.728Z,100.00
2023-01-21T10:55:53.419Z,100.00
2023-01-21T10:58:26.209Z,100.00
2023-01-21T11:00:54.392Z,100.00
2023-01-21T11:03:33.101Z,100.00
2023-01-21T11:06:04.374Z,100.00
2023-01-21T11:08:34.001Z,100.00
2023-01-21T11:11:04.098Z,100.00
2023-01-21T11:13:32.001Z,100.00
2023-01-21T11:16:01.064Z,100.00
2023-01-21T11:18:32.464Z,100.00
2023-01-21T11:21:05.763Z,100.00
2023-01-21T11:23:39.295Z,100.00
2023-01-21T11:26:10.431Z,100.00
2023-01-21T11:28:38.375Z,100.00
2023-01-21T11:31:14.191Z,100.00
2023-01-21T11:33:43.236Z,100.00
2023-01-21T11:36:14.217Z,100.00
2023-01-21T11:38:44.552Z,100.00
2023-01-21T11:41:19.341Z,100.00
2023-01-21T11:43:49.011Z,100.00
2023-01-21T11:46:29.238Z,100.00
2023-01-21T11:48:58.480Z,100.00
2023-01-21T11:51:26.315Z,100.00
2023-01-21T11:54:14.738Z,100.00
2023-01-21T11:56:44.108Z,100.00
2023-01-21T11:59:16.046Z,100.00
2023-01-21T12:01:52.282Z,100.00
2023-01-21T12:04:19.866Z,100.00
2023-01-21T12:06:48.762Z,100.00
2023-01-21T12:09:20.265Z,100.00
2023-01-21T12:12:03.679Z,100.00
2023-01-21T12:14:38.791Z,99.54
2023-01-21T12:17:12.481Z,99.68
2023-01-21T12:20:01.538Z,99.43
2023-01-21T12:22:39.546Z,99.50
2023-01-21T12:25:23.595Z,99.08
2023-01-21T12:28:07.337Z,98.59
2023-01-21T12:30:41.425Z,99.30
2023-01-21T12:33:14.284Z,98.75
2023-01-21T12:35:43.342Z,98.81
2023-01-21T12:38:14.916Z,98.80
2023-01-21T12:40:47.617Z,98.83
2023-01-21T12:43:18.487Z,98.38
2023-01-21T12:45:47.876Z,98.56
2023-01-21T12:48:19.420Z,98.03
2023-01-21T12:50:49.481Z,98.29
2023-01-21T12:53:21.716Z,97.89
2023-01-21T12:56:04.692Z,98.32
2023-01-21T12:58:33.967Z,97.67
2023-01-21T13:01:04.219Z,98.17
2023-01-21T13:03:41.374Z,97.89
2023-01-21T13:06:11.598Z,98.47
2023-01-21T13:08:50.567Z,98.23
2023-01-21T13:11:22.144Z,98.40
2023-01-21T13:13:57.536Z,98.46
2023-01-21T13:16:27.309Z,98.48
2023-01-21T13:18:56.525Z,98.60
2023-01-21T13:21:34.414Z,98.36
2023-01-21T13:24:11.466Z,98.02
2023-01-21T13:26:46.133Z,98.46
2023-01-21T13:29:17.333Z,98.56
2023-01-21T13:31:48.596Z,98.51
2023-01-21T13:34:23.004Z,98.64
2023-01-21T13:37:00.948Z,98.43
2023-01-21T13:39:33.876Z,98.04
2023-01-21T13:42:16.141Z,98.63
2023-01-21T13:45:05.238Z,98.54
2023-01-21T13:47:46.634Z,98.44
2023-01-21T13:50:21.945Z,98.28
2023-01-21T13:53:03.155Z,98.65
2023-01-21T13:55:39.484Z,98.42
2023-01-21T13:58:10.411Z,98.80
2023-01-21T14:00:41.667Z,99.04
2023-01-21T14:03:15.849Z,99.08
2023-01-21T14:05:46.443Z,99.16
2023-01-21T14:08:18.372Z,99.31
2023-01-21T14:10:49.703Z,98.56
2023-01-21T14:13:46.777Z,98.90
2023-01-21T14:16:28.475Z,99.12
2023-01-21T14:19:10.730Z,98.38
2023-01-21T14:21:48.704Z,99.25
2023-01-21T14:24:25.230Z,98.20
2023-01-21T14:27:05.474Z,98.29
2023-01-21T14:29:37.230Z,98.93
2023-01-21T14:32:13.568Z,98.65
2023-01-21T14:34:46.152Z,98.44
2023-01-21T14:37:16.622Z,99.19
2023-01-21T14:39:52.524Z,98.74
2023-01-21T14:42:26.328Z,98.62
2023-01-21T14:45:06.150Z,98.11
2023-01-21T14:47:45.958Z,98.67
2023-01-21T14:50:47.121Z,99.22
2023-01-21T14:53:19.775Z,99.54
2023-01-21T14:55:47.436Z,99.71
2023-01-21T14:58:22.826Z,99.04
2023-01-21T15:00:52.320Z,99.04
2023-01-21T15:03:21.704Z,98.64
2023-01-21T15:05:52.521Z,98.31
2023-01-21T15:08:23.931Z,98.48
2023-01-21T15:10:56.419Z,98.50
2023-01-21T15:13:34.258Z,98.93
2023-01-21T15:16:14.957Z,98.85
2023-01-21T15:18:48.516Z,99.10
2023-01-21T15:21:43.087Z,99.17
2023-01-21T15:24:24.682Z,99.04
2023-01-21T15:27:14.879Z,98.86
2023-01-21T15:29:43.602Z,99.56
2023-01-21T15:32:23.591Z,99.36
2023-01-21T15:34:53.711Z,99.31
2023-01-21T15:37:23.533Z,98.62
2023-01-21T15:39:52.304Z,98.81
2023-01-21T15:42:25.172Z,98.57
2023-01-21T15:45:03.078Z,98.75
2023-01-21T15:47:49.498Z,97.98
2023-01-21T15:50:21.890Z,98.05
2023-01-21T15:53:14.538Z,97.11
2023-01-21T15:56:04.491Z,97.13
2023-01-21T15:58:40.948Z,97.06
2023-01-21T16:01:15.834Z,96.72
2023-01-21T16:03:48.252Z,96.78
2023-01-21T16:06:21.286Z,96.90
2023-01-21T16:09:02.815Z,96.79
2023-01-21T16:11:41.501Z,96.94
2023-01-21T16:14:20.375Z,96.88
2023-01-21T16:16:54.276Z,96.30
2023-01-21T16:19:26.422Z,96.71
2023-01-21T16:21:56.850Z,96.36
2023-01-21T16:24:27.266Z,97.15
2023-01-21T16:26:55.069Z,97.07
2023-01-21T16:29:22.721Z,97.41
2023-01-21T16:31:51.320Z,97.46
2023-01-21T16:34:39.410Z,97.18
2023-01-21T16:37:07.233Z,96.71
2023-01-21T16:39:34.725Z,96.86
2023-01-21T16:42:03.771Z,96.52
2023-01-21T16:44:31.455Z,96.63
2023-01-21T16:46:58.978Z,96.70
2023-01-21T16:49:27.739Z,96.86
2023-01-21T16:51:57.926Z,96.58
2023-01-21T16:54:27.144Z,97.09
2023-01-21T16:56:56.724Z,96.93
2023-01-21T16:59:27.123Z,97.16
2023-01-21T17:01:55.548Z,96.65
2023-01-21T17:04:23.068Z,96.96
2023-01-21T17:06:53.796Z,96.97
2023-01-21T17:09:30.865Z,97.48
2023-01-21T17:12:01.399Z,96.94
2023-01-21T17:14:30.873Z,96.97
2023-01-21T17:16:59.823Z,97.34
2023-01-21T17:19:31.185Z,97.58
2023-01-21T17:22:01.665Z,97.44
2023-01-21T17:24:30.357Z,97.72
2023-01-21T17:27:02.494Z,97.60
2023-01-21T17:29:31.128Z,97.66
2023-01-21T17:31:59.656Z,97.55
2023-01-21T17:34:28.536Z,97.58
2023-01-21T17:36:56.788Z,98.11
2023-01-21T17:40:06.021Z,97.31
2023-01-21T17:42:39.945Z,97.79
2023-01-21T17:45:16.605Z,97.26
2023-01-21T17:48:07.333Z,98.25
2023-01-21T17:50:33.241Z,97.74
2023-01-21T17:53:03.234Z,97.32
2023-01-21T17:55:33.909Z,97.33
2023-01-21T17:58:04.554Z,97.69
2023-01-21T18:00:42.516Z,97.74
2023-01-21T18:03:10.757Z,98.00
2023-01-21T18:05:39.242Z,98.19
2023-01-21T18:08:19.503Z,98.27
2023-01-21T18:10:48.651Z,97.93
2023-01-21T18:13:17.488Z,98.24
2023-01-21T18:15:45.194Z,97.84
2023-01-21T18:18:16.853Z,97.51
2023-01-21T18:20:44.380Z,97.55
2023-01-21T18:23:12.308Z,97.80
2023-01-21T18:25:40.543Z,97.79
2023-01-21T18:28:15.674Z,97.55
2023-01-21T18:30:43.134Z,97.94
2023-01-21T18:33:11.337Z,97.94
2023-01-21T18:35:39.389Z,97.68
2023-01-21T18:38:07.333Z,97.73
2023-01-21T18:40:34.813Z,97.12
2023-01-21T18:43:02.158Z,96.95
2023-01-21T18:45:30.873Z,96.50
2023-01-21T18:47:58.631Z,96.73
2023-01-21T18:50:28.091Z,95.88
2023-01-21T18:52:55.705Z,95.84
2023-01-21T18:55:27.121Z,95.17
2023-01-21T18:57:56.233Z,94.61
2023-01-21T19:00:27.015Z,94.88
2023-01-21T19:03:14.405Z,94.86
2023-01-21T19:05:54.279Z,95.52
2023-01-21T19:09:01.977Z,94.93
2023-01-21T19:12:52.106Z,95.33
2023-01-21T19:16:05.203Z,94.90
2023-01-21T19:18:36.166Z,94.27
2023-01-21T19:21:28.123Z,94.23
2023-01-21T19:24:07.495Z,94.58
2023-01-21T19:26:59.901Z,94.40
2023-01-21T19:29:55.697Z,93.79
2023-01-21T19:32:23.606Z,93.72
2023-01-21T19:34:57.877Z,93.53
2023-01-21T19:37:26.974Z,92.86
2023-01-21T19:40:01.614Z,92.39
2023-01-21T19:42:29.127Z,92.73
2023-01-21T19:45:19.816Z,92.16
2023-01-21T19:47:49.047Z,92.05
2023-01-21T19:50:18.500Z,91.80
2023-01-21T19:52:46.761Z,91.87
2023-01-21T19:55:16.636Z,91.69
2023-01-21T19:57:45.531Z,92.05
2023-01-21T20:04:37.696Z,91.30
2023-01-21T20:11:17.886Z,92.90
2023-01-21T20:17:47.669Z,93.24
2023-01-21T20:20:17.563Z,93.50
2023-01-21T20:22:47.753Z,93.07
2023-01-21T20:25:18.061Z,93.82
2023-01-21T20:27:51.225Z,94.01
2023-01-21T20:30:22.112Z,93.86
2023-01-21T20:32:52.145Z,93.98
2023-01-21T20:35:20.805Z,94.10
2023-01-21T20:37:50.145Z,93.99
2023-01-21T20:40:20.135Z,94.09
2023-01-21T20:43:10.387Z,94.24
2023-01-21T20:45:40.023Z,94.13
2023-01-21T20:48:07.822Z,94.70
2023-01-21T20:50:35.961Z,94.25
2023-01-21T20:53:06.267Z,94.04
2023-01-21T20:55:33.869Z,94.03
2023-01-21T20:58:04.275Z,94.30
2023-01-21T21:00:33.592Z,94.49
2023-01-21T21:03:01.115Z,94.06
2023-01-21T21:05:29.438Z,94.50
2023-01-21T21:07:57.193Z,94.12
2023-01-21T21:10:26.353Z,94.70
2023-01-21T21:12:55.432Z,94.25
2023-01-21T21:15:24.379Z,94.67
2023-01-21T21:17:51.983Z,94.47
2023-01-21T21:20:21.782Z,94.89
2023-01-21T21:22:49.299Z,94.41
2023-01-21T21:25:18.246Z,94.82
2023-01-21T21:27:46.289Z,94.49
2023-01-21T21:30:15.695Z,94.65
2023-01-21T21:32:44.661Z,94.32
2023-01-21T21:35:24.592Z,94.50
2023-01-21T21:38:37.001Z,94.65
2023-01-21T21:44:09.583Z,95.49
2023-01-21T21:46:57.421Z,95.10
2023-01-21T21:49:30.386Z,95.54
2023-01-21T21:52:00.187Z,95.35
2023-01-21T21:54:27.877Z,95.06
2023-01-21T21:56:55.505Z,95.46
2023-01-21T22:00:12.460Z,95.43
2023-01-21T22:03:23.453Z,95.37
2023-01-21T22:06:40.667Z,95.14
2023-01-21T22:09:35.983Z,95.29
2023-01-21T22:12:50.818Z,95.41
2023-01-21T22:15:36.754Z,95.45
2023-01-21T22:19:18.889Z,94.85
2023-01-21T22:22:12.950Z,94.96
2023-01-21T22:25:22.260Z,95.31
2023-01-21T22:27:51.260Z,95.47
2023-01-21T22:30:18.944Z,95.11
2023-01-21T22:32:46.514Z,95.34
2023-01-21T22:35:13.920Z,94.97
2023-01-21T22:37:41.418Z,94.91
2023-01-21T22:40:10.266Z,95.25
2023-01-21T22:42:37.846Z,95.42
2023-01-21T22:45:07.817Z,94.53
2023-01-21T22:47:35.673Z,95.12
2023-01-21T22:50:03.048Z,94.81
2023-01-21T22:52:30.483Z,94.69
2023-01-21T22:54:57.838Z,94.94
2023-01-21T22:57:25.248Z,95.08
2023-01-21T22:59:52.779Z,94.74
2023-01-21T23:02:22.120Z,94.50
2023-01-21T23:04:50.436Z,94.58
2023-01-21T23:07:22.139Z,94.23
2023-01-21T23:09:54.188Z,94.51
2023-01-21T23:12:24.060Z,94.29
2023-01-21T23:14:54.612Z,94.42
2023-01-21T23:17:26.566Z,93.72
2023-01-21T23:19:54.134Z,94.27
2023-01-21T23:22:21.592Z,93.67
2023-01-21T23:24:49.011Z,94.17
2023-01-21T23:27:16.496Z,93.93
2023-01-21T23:29:43.897Z,94.32
2023-01-21T23:32:11.448Z,94.29
2023-01-21T23:34:41.484Z,93.83
2023-01-21T23:37:08.861Z,94.00
2023-01-21T23:39:36.256Z,94.00
2023-01-21T23:42:03.843Z,93.40
2023-01-21T23:44:31.804Z,94.05
2023-01-21T23:46:59.151Z,93.49
2023-01-21T23:49:26.530Z,93.51
2023-01-21T23:51:55.240Z,94.28
2023-01-21T23:54:22.662Z,94.66
2023-01-21T23:56:50.123Z,94.54
2023-01-21T23:59:17.482Z,94.05
